createdAt,value
2022-12-15T00:00:10.775Z,24.30
2022-12-15T00:02:56.374Z,24.60
2022-12-15T00:05:41.864Z,24.70
2022-12-15T00:08:28.611Z,24.70
2022-12-15T00:11:14.551Z,24.60
2022-12-15T00:14:00.353Z,24.50
2022-12-15T00:16:46.263Z,24.30
2022-12-15T00:19:32.138Z,24.10
2022-12-15T00:22:17.493Z,24.00
2022-12-15T00:25:03.290Z,24.00
2022-12-15T00:27:48.917Z,23.80
2022-12-15T00:30:34.356Z,23.50
2022-12-15T00:33:24.828Z,22.90
2022-12-15T00:36:10.488Z,21.90
2022-12-15T00:38:46.377Z,21.40
2022-12-15T00:41:16.078Z,21.40
2022-12-15T00:43:43.796Z,21.00
2022-12-15T00:46:29.436Z,21.10
2022-12-15T00:48:56.763Z,21.00
2022-12-15T00:51:43.164Z,21.10
2022-12-15T00:54:29.155Z,21.30
2022-12-15T00:57:15.007Z,22.00
2022-12-15T01:00:01.660Z,22.70
2022-12-15T01:02:47.298Z,23.00
2022-12-15T01:05:33.194Z,23.30
2022-12-15T01:08:19.085Z,23.60
2022-12-15T01:11:04.468Z,23.20
2022-12-15T01:13:50.087Z,22.90
2022-12-15T01:16:35.896Z,22.70
2022-12-15T01:19:21.683Z,22.60
2022-12-15T01:21:49.862Z,22.40
2022-12-15T01:24:17.046Z,21.90
2022-12-15T01:26:44.040Z,21.90
2022-12-15T01:29:10.996Z,21.80
2022-12-15T01:31:38.000Z,22.10
2022-12-15T01:34:05.241Z,22.10
2022-12-15T01:36:32.131Z,22.30
2022-12-15T01:38:59.014Z,21.90
2022-12-15T01:41:26.035Z,21.70
2022-12-15T01:43:52.941Z,21.90
2022-12-15T01:46:23.115Z,22.10
2022-12-15T01:49:12.041Z,21.90
2022-12-15T01:51:43.077Z,21.50
2022-12-15T01:54:23.407Z,21.30
2022-12-15T01:56:55.398Z,21.10
2022-12-15T01:59:31.085Z,21.40
2022-12-15T02:01:58.310Z,21.90
2022-12-15T02:04:26.219Z,22.30
2022-12-15T02:06:53.530Z,22.40
2022-12-15T02:09:22.451Z,22.30
2022-12-15T02:11:52.382Z,22.40
2022-12-15T02:14:57.060Z,22.40
2022-12-15T02:17:57.366Z,21.90
2022-12-15T02:20:46.172Z,21.80
2022-12-15T02:23:28.287Z,22.30
2022-12-15T02:26:20.668Z,22.60
2022-12-15T02:29:19.358Z,22.90
2022-12-15T02:32:08.229Z,22.80
2022-12-15T02:34:44.855Z,22.50
2022-12-15T02:37:17.537Z,22.20
2022-12-15T02:39:44.893Z,22.10
2022-12-15T02:42:12.898Z,22.00
2022-12-15T02:44:48.425Z,22.00
2022-12-15T02:47:52.673Z,22.10
2022-12-15T02:50:49.091Z,22.30
2022-12-15T02:53:31.628Z,21.30
2022-12-15T02:56:09.647Z,20.20
2022-12-15T02:58:39.700Z,20.00
2022-12-15T03:01:29.795Z,19.90
2022-12-15T03:03:58.523Z,20.20
2022-12-15T03:06:26.847Z,20.80
2022-12-15T03:08:53.773Z,21.30
2022-12-15T03:11:22.190Z,21.60
2022-12-15T03:13:49.866Z,21.70
2022-12-15T03:16:17.545Z,21.70
2022-12-15T03:18:44.541Z,21.90
2022-12-15T03:21:11.453Z,22.40
2022-12-15T03:23:38.910Z,22.70
2022-12-15T03:26:06.763Z,22.90
2022-12-15T03:28:34.358Z,22.70
2022-12-15T03:31:01.291Z,22.80
2022-12-15T03:33:28.537Z,22.80
2022-12-15T03:35:55.982Z,23.00
2022-12-15T03:38:22.895Z,23.10
2022-12-15T03:40:49.774Z,23.30
2022-12-15T03:43:16.628Z,23.30
2022-12-15T03:45:43.541Z,23.00
2022-12-15T03:48:10.524Z,21.90
2022-12-15T03:50:37.608Z,21.30
2022-12-15T03:53:04.998Z,21.00
2022-12-15T03:55:32.038Z,20.40
2022-12-15T03:57:59.431Z,19.40
2022-12-15T04:00:26.848Z,18.90
2022-12-15T04:02:54.470Z,18.70
2022-12-15T04:05:25.870Z,18.60
2022-12-15T04:07:53.957Z,18.60
2022-12-15T04:10:22.193Z,18.40
2022-12-15T04:12:49.722Z,18.40
2022-12-15T04:15:18.009Z,18.40
2022-12-15T04:17:44.901Z,18.30
2022-12-15T04:20:12.192Z,18.20
2022-12-15T04:22:50.207Z,17.80
2022-12-15T04:25:39.030Z,17.90
2022-12-15T04:28:25.164Z,18.10
2022-12-15T04:31:37.992Z,18.50
2022-12-15T04:34:26.907Z,18.30
2022-12-15T04:37:13.868Z,18.30
2022-12-15T04:40:04.685Z,18.40
2022-12-15T04:42:50.566Z,18.70
2022-12-15T04:45:39.322Z,18.90
2022-12-15T04:48:25.200Z,19.20
2022-12-15T04:51:10.523Z,20.00
2022-12-15T04:53:56.252Z,20.90
2022-12-15T04:56:41.475Z,21.40
2022-12-15T04:59:27.005Z,21.10
2022-12-15T05:02:12.813Z,20.90
2022-12-15T05:04:58.389Z,20.90
2022-12-15T05:07:44.620Z,21.20
2022-12-15T05:10:29.944Z,21.60
2022-12-15T05:13:26.175Z,21.70
2022-12-15T05:16:12.018Z,22.10
2022-12-15T05:18:57.868Z,22.20
2022-12-15T05:21:43.302Z,22.20
2022-12-15T05:24:29.097Z,21.90
2022-12-15T05:27:14.509Z,21.90
2022-12-15T05:30:00.108Z,21.90
2022-12-15T05:32:27.017Z,21.80
2022-12-15T05:34:53.972Z,21.90
2022-12-15T05:37:20.943Z,21.90
2022-12-15T05:39:47.826Z,22.10
2022-12-15T05:42:14.703Z,22.30
2022-12-15T05:44:41.727Z,21.70
2022-12-15T05:47:09.360Z,21.20
2022-12-15T05:49:36.251Z,19.70
2022-12-15T05:52:04.673Z,17.90
2022-12-15T05:54:31.548Z,16.70
2022-12-15T05:56:58.422Z,16.40
2022-12-15T05:59:25.370Z,16.50
2022-12-15T06:01:52.364Z,16.60
2022-12-15T06:04:19.623Z,16.20
2022-12-15T06:06:49.302Z,15.50
2022-12-15T06:09:16.270Z,15.70
2022-12-15T06:11:43.829Z,16.00
2022-12-15T06:14:10.812Z,16.60
2022-12-15T06:16:44.159Z,17.80
2022-12-15T06:19:17.509Z,18.10
2022-12-15T06:21:44.413Z,17.70
2022-12-15T06:24:11.473Z,17.20
2022-12-15T06:26:40.163Z,17.40
2022-12-15T06:29:10.716Z,17.70
2022-12-15T06:31:38.609Z,17.70
2022-12-15T06:34:07.680Z,17.90
2022-12-15T06:36:35.470Z,18.80
2022-12-15T06:39:04.387Z,18.60
2022-12-15T06:41:31.812Z,18.30
2022-12-15T06:44:01.290Z,17.80
2022-12-15T06:46:30.620Z,18.20
2022-12-15T06:48:58.426Z,18.90
2022-12-15T06:51:25.990Z,18.90
2022-12-15T06:53:56.569Z,17.80
2022-12-15T06:56:42.542Z,18.00
2022-12-15T06:59:11.301Z,18.20
2022-12-15T07:01:38.735Z,18.10
2022-12-15T07:04:06.254Z,18.50
2022-12-15T07:06:36.879Z,18.70
2022-12-15T07:09:05.243Z,17.90
2022-12-15T07:11:32.192Z,17.60
2022-12-15T07:13:59.220Z,16.70
2022-12-15T07:16:26.877Z,15.30
2022-12-15T07:18:53.953Z,15.90
2022-12-15T07:21:20.887Z,17.10
2022-12-15T07:23:56.821Z,17.80
2022-12-15T07:26:24.980Z,16.90
2022-12-15T07:28:53.740Z,16.90
2022-12-15T07:31:22.068Z,17.70
2022-12-15T07:33:49.367Z,18.40
2022-12-15T07:36:16.592Z,18.20
2022-12-15T07:38:45.640Z,18.90
2022-12-15T07:41:18.915Z,18.70
2022-12-15T07:43:47.196Z,19.00
2022-12-15T07:46:14.583Z,18.90
2022-12-15T07:48:41.575Z,18.80
2022-12-15T07:51:13.837Z,17.80
2022-12-15T07:53:47.708Z,16.70
2022-12-15T07:56:15.643Z,16.20
2022-12-15T07:58:42.739Z,17.00
2022-12-15T08:01:12.602Z,17.60
2022-12-15T08:03:41.181Z,17.60
2022-12-15T08:06:13.542Z,17.20
2022-12-15T08:08:40.938Z,17.10
2022-12-15T08:11:09.573Z,16.60
2022-12-15T08:16:24.276Z,17.00
2022-12-15T08:18:51.291Z,17.40
2022-12-15T08:21:18.441Z,17.90
2022-12-15T08:23:45.506Z,18.80
2022-12-15T08:26:15.242Z,19.10
2022-12-15T08:28:43.146Z,19.60
2022-12-15T08:31:13.754Z,19.10
2022-12-15T08:33:41.416Z,19.30
2022-12-15T08:36:10.932Z,20.10
2022-12-15T08:38:39.861Z,20.50
2022-12-15T08:41:28.656Z,19.90
2022-12-15T08:43:57.077Z,19.30
2022-12-15T08:46:27.848Z,20.00
2022-12-15T08:48:55.935Z,20.40
2022-12-15T08:51:25.469Z,20.20
2022-12-15T08:53:52.866Z,20.60
2022-12-15T08:56:22.343Z,21.50
2022-12-15T08:58:50.637Z,21.70
2022-12-15T09:01:24.315Z,22.60
2022-12-15T09:03:57.544Z,22.90
2022-12-15T09:06:28.092Z,23.00
2022-12-15T09:08:59.506Z,24.00
2022-12-15T09:11:28.647Z,24.50
2022-12-15T09:13:55.574Z,24.70
2022-12-15T09:16:22.933Z,23.80
2022-12-15T09:18:53.623Z,23.70
2022-12-15T09:21:26.355Z,23.90
2022-12-15T09:24:00.534Z,23.20
2022-12-15T09:26:33.265Z,23.40
2022-12-15T09:29:02.017Z,23.20
2022-12-15T09:31:33.881Z,23.80
2022-12-15T09:34:01.445Z,25.10
2022-12-15T09:36:30.270Z,25.90
2022-12-15T09:38:57.294Z,26.60
2022-12-15T09:41:30.003Z,26.90
2022-12-15T09:44:07.793Z,27.60
2022-12-15T09:47:09.007Z,28.10
2022-12-15T09:49:47.871Z,27.70
2022-12-15T09:52:18.251Z,27.90
2022-12-15T09:54:46.484Z,28.30
2022-12-15T09:57:21.567Z,27.70
2022-12-15T10:00:13.025Z,27.40
2022-12-15T10:03:12.225Z,27.40
2022-12-15T10:08:58.151Z,27.00
2022-12-15T10:12:10.035Z,26.40
2022-12-15T10:14:50.384Z,27.20
2022-12-15T10:17:17.288Z,27.20
2022-12-15T10:19:59.643Z,26.20
2022-12-15T10:22:31.491Z,25.90
2022-12-15T10:25:11.136Z,25.70
2022-12-15T10:27:56.605Z,25.50
2022-12-15T10:30:23.945Z,25.40
2022-12-15T10:33:16.933Z,25.50
2022-12-15T10:35:44.277Z,25.10
2022-12-15T10:38:38.646Z,25.10
2022-12-15T10:41:09.704Z,24.40
2022-12-15T10:43:40.935Z,24.20
2022-12-15T10:46:22.222Z,24.60
2022-12-15T10:48:58.191Z,24.50
2022-12-15T10:51:31.840Z,24.30
2022-12-15T10:54:13.140Z,23.90
2022-12-15T10:56:51.250Z,24.50
2022-12-15T10:59:36.118Z,24.50
2022-12-15T11:02:25.692Z,24.40
2022-12-15T11:04:58.464Z,23.90
2022-12-15T11:07:37.293Z,24.00
2022-12-15T11:10:50.337Z,24.40
2022-12-15T11:13:18.793Z,24.50
2022-12-15T11:15:56.647Z,24.10
2022-12-15T11:19:08.096Z,24.00
2022-12-15T11:21:48.687Z,23.70
2022-12-15T11:24:26.084Z,25.20
2022-12-15T11:26:59.506Z,25.50
2022-12-15T11:29:44.277Z,25.30
2022-12-15T11:32:13.085Z,25.50
2022-12-15T11:34:44.392Z,25.40
2022-12-15T11:37:38.555Z,26.10
2022-12-15T11:40:24.028Z,26.70
2022-12-15T11:43:19.845Z,27.20
2022-12-15T11:46:05.212Z,27.70
2022-12-15T11:48:54.878Z,26.20
2022-12-15T11:51:33.139Z,23.80
2022-12-15T11:54:14.185Z,22.90
2022-12-15T11:56:56.257Z,22.50
2022-12-15T11:59:47.351Z,22.60
2022-12-15T12:02:21.794Z,23.20
2022-12-15T12:04:57.985Z,24.10
2022-12-15T12:10:48.598Z,23.60
2022-12-15T12:13:35.607Z,22.70
2022-12-15T12:16:18.589Z,21.70
2022-12-15T12:18:50.443Z,21.20
2022-12-15T12:21:24.490Z,21.30
2022-12-15T12:24:20.923Z,20.90
2022-12-15T12:27:08.992Z,20.00
2022-12-15T12:29:42.131Z,19.40
2022-12-15T12:32:19.498Z,19.50
2022-12-15T12:35:29.926Z,20.00
2022-12-15T12:38:03.405Z,20.00
2022-12-15T12:40:49.034Z,19.70
2022-12-15T12:43:41.619Z,20.00
2022-12-15T12:46:11.169Z,20.20
2022-12-15T12:48:48.535Z,20.90
2022-12-15T12:51:27.465Z,21.50
2022-12-15T12:53:55.229Z,22.20
2022-12-15T12:56:40.176Z,22.50
2022-12-15T12:59:30.041Z,22.60
2022-12-15T13:02:18.020Z,21.50
2022-12-15T13:04:52.396Z,20.30
2022-12-15T13:07:38.871Z,20.10
2022-12-15T13:10:08.509Z,20.20
2022-12-15T13:12:53.467Z,19.60
2022-12-15T13:15:29.828Z,19.60
2022-12-15T13:18:16.973Z,19.50
2022-12-15T13:20:45.628Z,20.00
2022-12-15T13:23:20.387Z,19.80
2022-12-15T13:26:02.787Z,20.80
2022-12-15T13:28:44.194Z,21.50
2022-12-15T13:31:15.054Z,22.20
2022-12-15T13:34:15.135Z,22.50
2022-12-15T13:36:42.184Z,21.80
2022-12-15T13:39:14.566Z,21.40
2022-12-15T13:42:15.427Z,20.30
2022-12-15T13:44:41.272Z,20.20
2022-12-15T13:47:17.475Z,19.40
2022-12-15T13:50:03.717Z,19.20
2022-12-15T13:55:41.048Z,20.20
2022-12-15T13:58:16.235Z,20.70
2022-12-15T14:00:57.510Z,21.20
2022-12-15T14:03:25.778Z,21.80
2022-12-15T14:05:56.799Z,22.50
2022-12-15T14:08:29.556Z,23.60
2022-12-15T14:10:59.992Z,23.60
2022-12-15T14:13:30.912Z,22.80
2022-12-15T14:16:19.197Z,22.50
2022-12-15T14:19:14.645Z,21.80
2022-12-15T14:21:56.810Z,21.50
2022-12-15T14:27:28.459Z,20.50
2022-12-15T14:30:28.477Z,20.40
2022-12-15T14:33:07.821Z,19.80
2022-12-15T14:35:49.638Z,19.20
2022-12-15T14:38:27.972Z,19.10
2022-12-15T14:40:57.468Z,19.20
2022-12-15T14:43:34.469Z,18.70
2022-12-15T14:46:16.461Z,18.30
2022-12-15T14:49:14.903Z,18.60
2022-12-15T14:51:46.824Z,19.20
2022-12-15T14:54:49.831Z,19.80
2022-12-15T14:57:23.060Z,20.00
2022-12-15T14:59:51.547Z,20.20
2022-12-15T15:02:27.218Z,20.80
2022-12-15T15:03:07.047Z,24.40
2022-12-15T15:03:10.065Z,27.70
2022-12-15T15:03:14.310Z,20.50
2022-12-15T15:05:07.553Z,20.20
2022-12-15T15:07:42.737Z,20.10
2022-12-15T15:10:23.894Z,20.10
2022-12-15T15:12:52.628Z,19.20
2022-12-15T15:15:26.853Z,19.20
2022-12-15T15:17:57.149Z,19.60
2022-12-15T15:20:31.200Z,18.50
2022-12-15T15:23:04.337Z,19.10
2022-12-15T15:25:39.372Z,17.80
2022-12-15T15:28:17.019Z,17.40
2022-12-15T15:30:51.959Z,16.70
2022-12-15T15:33:29.138Z,15.50
2022-12-15T15:35:58.811Z,15.30
2022-12-15T15:38:29.322Z,15.10
2022-12-15T15:41:04.353Z,15.10
2022-12-15T15:43:31.311Z,16.60
2022-12-15T15:46:02.444Z,18.10
2022-12-15T15:48:52.845Z,19.90
2022-12-15T15:51:23.986Z,21.40
2022-12-15T15:53:52.870Z,21.20
2022-12-15T15:56:21.052Z,20.50
2022-12-15T15:58:50.618Z,19.90
2022-12-15T16:01:17.580Z,20.50
2022-12-15T16:03:44.761Z,21.40
2022-12-15T16:06:20.527Z,21.00
2022-12-15T16:08:53.756Z,21.30
2022-12-15T16:11:25.521Z,21.30
2022-12-15T16:13:57.097Z,20.30
2022-12-15T16:16:36.127Z,20.30
2022-12-15T16:19:03.640Z,20.30
2022-12-15T16:21:35.540Z,21.20
2022-12-15T16:24:16.634Z,21.60
2022-12-15T16:26:50.324Z,21.50
2022-12-15T16:29:22.841Z,21.80
2022-12-15T16:31:49.954Z,22.60
2022-12-15T16:34:20.694Z,22.50
2022-12-15T16:36:47.933Z,22.20
2022-12-15T16:39:28.510Z,23.20
2022-12-15T16:41:57.271Z,23.70
2022-12-15T16:44:26.053Z,23.40
2022-12-15T16:46:53.626Z,23.00
2022-12-15T16:49:20.711Z,23.00
2022-12-15T16:51:51.213Z,23.00
2022-12-15T16:54:22.563Z,22.50
2022-12-15T16:56:53.209Z,23.10
2022-12-15T16:59:33.066Z,24.00
2022-12-15T17:02:01.504Z,24.40
2022-12-15T17:04:28.956Z,24.10
2022-12-15T17:06:55.953Z,23.80
2022-12-15T17:09:25.694Z,23.70
2022-12-15T17:11:52.740Z,22.80
2022-12-15T17:14:19.678Z,22.40
2022-12-15T17:16:46.729Z,22.40
2022-12-15T17:19:19.249Z,22.30
2022-12-15T17:21:50.791Z,22.10
2022-12-15T17:24:20.508Z,22.80
2022-12-15T17:26:50.726Z,22.60
2022-12-15T17:29:22.935Z,23.40
2022-12-15T17:31:50.662Z,24.00
2022-12-15T17:34:27.980Z,24.00
2022-12-15T17:36:59.388Z,24.40
2022-12-15T17:39:27.097Z,24.30
2022-12-15T17:42:02.906Z,24.50
2022-12-15T17:44:37.942Z,24.50
2022-12-15T17:47:08.118Z,24.90
2022-12-15T17:49:38.379Z,24.50
2022-12-15T17:52:32.816Z,24.70
2022-12-15T17:55:01.506Z,24.40
2022-12-15T17:57:31.731Z,24.70
2022-12-15T18:00:02.134Z,25.20
2022-12-15T18:02:29.600Z,25.10
2022-12-15T18:04:56.848Z,24.80
2022-12-15T18:07:24.407Z,24.20
2022-12-15T18:09:52.534Z,24.20
2022-12-15T18:12:24.695Z,24.30
2022-12-15T18:14:53.285Z,24.50
2022-12-15T18:17:22.321Z,24.70
2022-12-15T18:19:49.343Z,24.60
2022-12-15T18:22:24.374Z,24.50
2022-12-15T18:24:53.879Z,24.60
2022-12-15T18:27:27.195Z,24.30
2022-12-15T18:29:54.597Z,23.60
2022-12-15T18:32:24.049Z,23.50
2022-12-15T18:34:51.719Z,23.50
2022-12-15T18:37:20.810Z,24.20
2022-12-15T18:39:48.102Z,24.10
2022-12-15T18:42:18.019Z,23.90
2022-12-15T18:44:53.316Z,23.40
2022-12-15T18:47:22.954Z,22.90
2022-12-15T18:49:50.805Z,22.90
2022-12-15T18:52:22.889Z,22.20
2022-12-15T18:54:52.266Z,22.30
2022-12-15T18:57:29.458Z,21.70
2022-12-15T19:00:02.493Z,22.40
2022-12-15T19:02:29.695Z,22.20
2022-12-15T19:04:56.871Z,21.60
2022-12-15T19:07:23.937Z,21.70
2022-12-15T19:09:51.091Z,21.60
2022-12-15T19:12:18.462Z,21.70
2022-12-15T19:14:51.180Z,22.00
2022-12-15T19:17:39.275Z,21.50
2022-12-15T19:20:37.341Z,21.20
2022-12-15T19:23:05.625Z,21.20
2022-12-15T19:25:33.218Z,21.10
2022-12-15T19:28:00.959Z,21.70
2022-12-15T19:30:37.044Z,21.80
2022-12-15T19:33:08.562Z,21.70
2022-12-15T19:35:37.174Z,21.90
2022-12-15T19:38:04.329Z,21.30
2022-12-15T19:40:33.564Z,21.10
2022-12-15T19:43:01.548Z,20.80
2022-12-15T19:45:31.466Z,21.80
2022-12-15T19:47:59.330Z,22.30
2022-12-15T19:50:30.424Z,22.30
2022-12-15T19:53:01.057Z,21.40
2022-12-15T19:55:34.601Z,20.70
2022-12-15T19:58:22.231Z,21.40
2022-12-15T20:00:52.523Z,21.50
2022-12-15T20:03:20.740Z,21.30
2022-12-15T20:05:50.315Z,21.50
2022-12-15T20:08:24.096Z,22.10
2022-12-15T20:10:51.682Z,22.50
2022-12-15T20:13:18.811Z,22.30
2022-12-15T20:15:45.882Z,22.10
2022-12-15T20:18:13.186Z,21.30
2022-12-15T20:20:41.769Z,21.40
2022-12-15T20:23:27.838Z,20.90
2022-12-15T20:25:56.356Z,20.80
2022-12-15T20:28:26.310Z,21.70
2022-12-15T20:30:54.077Z,21.90
2022-12-15T20:33:21.149Z,22.20
2022-12-15T20:35:49.826Z,21.50
2022-12-15T20:38:33.322Z,20.70
2022-12-15T20:41:02.396Z,21.00
2022-12-15T20:43:35.241Z,21.00
2022-12-15T20:46:19.382Z,20.70
2022-12-15T20:48:50.736Z,21.20
2022-12-15T20:51:29.886Z,21.10
2022-12-15T20:53:59.933Z,20.60
2022-12-15T20:56:27.728Z,20.20
2022-12-15T20:58:56.768Z,20.90
2022-12-15T21:01:33.031Z,21.20
2022-12-15T21:04:06.871Z,22.30
2022-12-15T21:06:33.905Z,22.90
2022-12-15T21:09:00.862Z,23.10
2022-12-15T21:11:32.632Z,22.40
2022-12-15T21:14:04.276Z,22.60
2022-12-15T21:16:32.387Z,22.80
2022-12-15T21:19:19.641Z,23.00
2022-12-15T21:21:51.987Z,22.80
2022-12-15T21:24:20.339Z,22.80
2022-12-15T21:26:47.690Z,23.00
2022-12-15T21:29:20.209Z,23.40
2022-12-15T21:31:47.714Z,23.20
2022-12-15T21:34:14.932Z,22.90
2022-12-15T21:36:47.963Z,23.00
2022-12-15T21:39:25.376Z,23.00
2022-12-15T21:41:52.402Z,23.10
2022-12-15T21:44:22.078Z,23.80
2022-12-15T21:46:49.008Z,24.50
2022-12-15T21:49:18.606Z,23.50
2022-12-15T21:52:00.389Z,23.80
2022-12-15T21:54:32.900Z,24.40
2022-12-15T21:57:00.993Z,24.50
2022-12-15T21:59:30.908Z,24.80
2022-12-15T22:02:00.347Z,23.80
2022-12-15T22:04:31.529Z,23.90
2022-12-15T22:06:58.566Z,23.80
2022-12-15T22:09:25.714Z,24.10
2022-12-15T22:11:54.830Z,23.30
2022-12-15T22:14:34.915Z,23.30
2022-12-15T22:17:15.885Z,23.40
2022-12-15T22:19:42.884Z,23.70
2022-12-15T22:22:09.814Z,24.30
2022-12-15T22:24:36.831Z,24.90
2022-12-15T22:27:03.841Z,25.40
2022-12-15T22:29:31.709Z,26.00
2022-12-15T22:31:58.717Z,25.70
2022-12-15T22:34:27.187Z,25.40
2022-12-15T22:36:54.798Z,25.70
2022-12-15T22:39:22.025Z,25.30
2022-12-15T22:41:51.538Z,25.60
2022-12-15T22:44:27.645Z,25.30
2022-12-15T22:46:56.894Z,25.30
2022-12-15T22:49:27.843Z,25.10
2022-12-15T22:51:54.897Z,24.80
2022-12-15T22:54:27.469Z,24.50
2022-12-15T22:56:59.082Z,24.70
2022-12-15T22:59:46.674Z,24.70
2022-12-15T23:02:13.641Z,24.30
2022-12-15T23:04:40.968Z,24.60
2022-12-15T23:07:11.690Z,24.40
2022-12-15T23:09:38.860Z,25.00
2022-12-15T23:12:06.004Z,25.70
2022-12-15T23:14:51.377Z,25.80
2022-12-15T23:17:18.527Z,25.70
2022-12-15T23:19:46.085Z,25.80
2022-12-15T23:22:13.764Z,25.60
2022-12-15T23:24:40.968Z,25.00
2022-12-15T23:27:11.794Z,25.20
2022-12-15T23:29:38.777Z,25.50
2022-12-15T23:32:06.132Z,25.30
2022-12-15T23:34:33.064Z,25.40
2022-12-15T23:37:00.909Z,24.80
2022-12-15T23:39:27.852Z,24.10
2022-12-15T23:41:54.798Z,23.30
2022-12-15T23:44:22.242Z,23.10
2022-12-15T23:46:49.183Z,22.80
2022-12-15T23:49:16.123Z,23.00
2022-12-15T23:51:43.008Z,23.00
2022-12-15T23:54:10.263Z,23.60
2022-12-15T23:56:39.507Z,24.00
2022-12-15T23:59:06.451Z,23.90
